sensor_id;sensor_type;location;lat;lon;timestamp;P1;durP1;ratioP1;P2;durP2;ratioP2
14992;SDS011;7592;51.088;13.732;2022-12-18T00:01:59;37.50;;;21.07;;
14992;SDS011;7592;51.088;13.732;2022-12-18T00:06:51;44.23;;;23.00;;
14992;SDS011;7592;51.088;13.732;2022-12-18T00:11:44;47.70;;;22.90;;
14992;SDS011;7592;51.088;13.732;2022-12-18T00:16:36;46.67;;;23.27;;
14992;SDS011;7592;51.088;13.732;2022-12-18T00:21:28;45.37;;;22.23;;
14992;SDS011;7592;51.088;13.732;2022-12-18T00:26:25;45.90;;;22.87;;
14992;SDS011;7592;51.088;13.732;2022-12-18T00:31:23;48.03;;;23.07;;
14992;SDS011;7592;51.088;13.732;2022-12-18T00:36:18;45.20;;;20.93;;
14992;SDS011;7592;51.088;13.732;2022-12-18T00:41:12;43.70;;;20.73;;
14992;SDS011;7592;51.088;13.732;2022-12-18T00:46:28;51.27;;;22.40;;
14992;SDS011;7592;51.088;13.732;2022-12-18T00:51:20;45.93;;;21.87;;
14992;SDS011;7592;51.088;13.732;2022-12-18T00:56:12;39.07;;;21.37;;
14992;SDS011;7592;51.088;13.732;2022-12-18T01:01:07;41.97;;;22.53;;
14992;SDS011;7592;51.088;13.732;2022-12-18T01:06:05;48.33;;;22.27;;
14992;SDS011;7592;51.088;13.732;2022-12-18T01:10:58;45.87;;;23.20;;
14992;SDS011;7592;51.088;13.732;2022-12-18T01:15:50;49.00;;;21.70;;
14992;SDS011;7592;51.088;13.732;2022-12-18T01:20:42;43.27;;;21.73;;
14992;SDS011;7592;51.088;13.732;2022-12-18T01:25:36;39.27;;;20.90;;
14992;SDS011;7592;51.088;13.732;2022-12-18T01:30:28;45.63;;;22.30;;
14992;SDS011;7592;51.088;13.732;2022-12-18T01:35:22;46.77;;;22.50;;
14992;SDS011;7592;51.088;13.732;2022-12-18T01:40:17;45.93;;;21.10;;
14992;SDS011;7592;51.088;13.732;2022-12-18T01:50:13;44.17;;;22.37;;
14992;SDS011;7592;51.088;13.732;2022-12-18T01:55:15;43.40;;;21.33;;
14992;SDS011;7592;51.088;13.732;2022-12-18T02:00:12;53.33;;;24.27;;
14992;SDS011;7592;51.088;13.732;2022-12-18T02:11:53;49.73;;;22.37;;
14992;SDS011;7592;51.088;13.732;2022-12-18T02:22:21;43.20;;;21.40;;
14992;SDS011;7592;51.088;13.732;2022-12-18T02:27:41;43.73;;;20.23;;
14992;SDS011;7592;51.088;13.732;2022-12-18T02:32:38;35.63;;;19.13;;
14992;SDS011;7592;51.088;13.732;2022-12-18T02:37:33;47.57;;;21.67;;
14992;SDS011;7592;51.088;13.732;2022-12-18T02:42:29;49.83;;;22.47;;
14992;SDS011;7592;51.088;13.732;2022-12-18T02:47:24;43.70;;;20.87;;
14992;SDS011;7592;51.088;13.732;2022-12-18T02:57:50;38.83;;;17.17;;
14992;SDS011;7592;51.088;13.732;2022-12-18T03:03:46;46.63;;;20.43;;
14992;SDS011;7592;51.088;13.732;2022-12-18T03:08:25;41.50;;;19.60;;
14992;SDS011;7592;51.088;13.732;2022-12-18T03:13:34;37.30;;;18.43;;
14992;SDS011;7592;51.088;13.732;2022-12-18T03:18:37;48.80;;;19.90;;
14992;SDS011;7592;51.088;13.732;2022-12-18T03:23:39;42.40;;;18.33;;
14992;SDS011;7592;51.088;13.732;2022-12-18T03:28:38;42.47;;;21.57;;
14992;SDS011;7592;51.088;13.732;2022-12-18T03:33:38;49.40;;;23.47;;
14992;SDS011;7592;51.088;13.732;2022-12-18T03:38:38;37.37;;;20.10;;
14992;SDS011;7592;51.088;13.732;2022-12-18T03:48:31;35.23;;;18.53;;
14992;SDS011;7592;51.088;13.732;2022-12-18T03:53:47;31.37;;;15.20;;
14992;SDS011;7592;51.088;13.732;2022-12-18T03:58:48;32.73;;;14.77;;
14992;SDS011;7592;51.088;13.732;2022-12-18T04:03:47;29.03;;;14.27;;
14992;SDS011;7592;51.088;13.732;2022-12-18T04:08:43;34.87;;;16.30;;
14992;SDS011;7592;51.088;13.732;2022-12-18T04:13:39;32.57;;;15.50;;
14992;SDS011;7592;51.088;13.732;2022-12-18T04:18:41;30.07;;;15.93;;
14992;SDS011;7592;51.088;13.732;2022-12-18T04:23:34;30.13;;;16.40;;
14992;SDS011;7592;51.088;13.732;2022-12-18T04:28:26;33.33;;;16.03;;
14992;SDS011;7592;51.088;13.732;2022-12-18T04:33:18;31.67;;;15.77;;
14992;SDS011;7592;51.088;13.732;2022-12-18T04:38:11;32.37;;;14.67;;
14992;SDS011;7592;51.088;13.732;2022-12-18T04:43:04;33.27;;;15.07;;
14992;SDS011;7592;51.088;13.732;2022-12-18T04:47:57;29.73;;;14.77;;
14992;SDS011;7592;51.088;13.732;2022-12-18T04:52:50;34.10;;;15.83;;
14992;SDS011;7592;51.088;13.732;2022-12-18T04:57:42;30.60;;;14.57;;
14992;SDS011;7592;51.088;13.732;2022-12-18T05:02:34;29.00;;;14.90;;
14992;SDS011;7592;51.088;13.732;2022-12-18T05:07:26;34.77;;;15.37;;
14992;SDS011;7592;51.088;13.732;2022-12-18T05:12:18;31.60;;;14.30;;
14992;SDS011;7592;51.088;13.732;2022-12-18T05:17:12;32.37;;;15.07;;
14992;SDS011;7592;51.088;13.732;2022-12-18T05:22:07;29.77;;;13.43;;
14992;SDS011;7592;51.088;13.732;2022-12-18T05:27:00;33.57;;;16.37;;
14992;SDS011;7592;51.088;13.732;2022-12-18T05:31:52;31.03;;;14.93;;
14992;SDS011;7592;51.088;13.732;2022-12-18T05:36:44;25.60;;;13.20;;
14992;SDS011;7592;51.088;13.732;2022-12-18T05:41:36;34.83;;;16.27;;
14992;SDS011;7592;51.088;13.732;2022-12-18T05:46:28;36.23;;;17.10;;
14992;SDS011;7592;51.088;13.732;2022-12-18T05:51:21;36.43;;;14.50;;
14992;SDS011;7592;51.088;13.732;2022-12-18T05:56:15;28.10;;;14.57;;
14992;SDS011;7592;51.088;13.732;2022-12-18T06:01:18;39.70;;;16.50;;
14992;SDS011;7592;51.088;13.732;2022-12-18T06:06:32;32.80;;;16.17;;
14992;SDS011;7592;51.088;13.732;2022-12-18T06:11:25;43.93;;;20.07;;
14992;SDS011;7592;51.088;13.732;2022-12-18T06:16:17;40.50;;;18.90;;
14992;SDS011;7592;51.088;13.732;2022-12-18T06:21:10;33.23;;;14.93;;
14992;SDS011;7592;51.088;13.732;2022-12-18T06:26:07;30.67;;;15.17;;
14992;SDS011;7592;51.088;13.732;2022-12-18T06:31:02;37.00;;;17.17;;
14992;SDS011;7592;51.088;13.732;2022-12-18T06:36:29;30.60;;;14.87;;
14992;SDS011;7592;51.088;13.732;2022-12-18T06:41:14;30.60;;;13.90;;
14992;SDS011;7592;51.088;13.732;2022-12-18T06:46:09;26.30;;;12.57;;
14992;SDS011;7592;51.088;13.732;2022-12-18T06:51:02;23.90;;;11.27;;
14992;SDS011;7592;51.088;13.732;2022-12-18T06:56:04;25.67;;;12.27;;
14992;SDS011;7592;51.088;13.732;2022-12-18T07:01:01;25.57;;;12.37;;
14992;SDS011;7592;51.088;13.732;2022-12-18T07:05:54;34.43;;;15.27;;
14992;SDS011;7592;51.088;13.732;2022-12-18T07:10:48;24.10;;;11.77;;
14992;SDS011;7592;51.088;13.732;2022-12-18T07:15:46;26.30;;;11.87;;
14992;SDS011;7592;51.088;13.732;2022-12-18T07:20:40;24.43;;;12.23;;
14992;SDS011;7592;51.088;13.732;2022-12-18T07:25:35;26.53;;;11.80;;
14992;SDS011;7592;51.088;13.732;2022-12-18T07:30:27;26.37;;;12.13;;
14992;SDS011;7592;51.088;13.732;2022-12-18T07:35:19;24.27;;;11.77;;
14992;SDS011;7592;51.088;13.732;2022-12-18T07:40:15;30.27;;;15.17;;
14992;SDS011;7592;51.088;13.732;2022-12-18T07:45:09;32.17;;;13.77;;
14992;SDS011;7592;51.088;13.732;2022-12-18T07:50:03;25.37;;;11.07;;
14992;SDS011;7592;51.088;13.732;2022-12-18T07:54:56;20.67;;;10.63;;
14992;SDS011;7592;51.088;13.732;2022-12-18T07:59:48;24.17;;;11.17;;
14992;SDS011;7592;51.088;13.732;2022-12-18T08:04:40;32.47;;;16.87;;
14992;SDS011;7592;51.088;13.732;2022-12-18T08:09:33;28.43;;;14.10;;
14992;SDS011;7592;51.088;13.732;2022-12-18T08:14:25;33.47;;;15.30;;
14992;SDS011;7592;51.088;13.732;2022-12-18T08:19:17;31.00;;;13.93;;
14992;SDS011;7592;51.088;13.732;2022-12-18T08:24:09;27.47;;;13.27;;
14992;SDS011;7592;51.088;13.732;2022-12-18T08:29:02;39.23;;;16.20;;
14992;SDS011;7592;51.088;13.732;2022-12-18T08:33:54;20.13;;;12.13;;
14992;SDS011;7592;51.088;13.732;2022-12-18T08:38:47;22.63;;;13.10;;
14992;SDS011;7592;51.088;13.732;2022-12-18T08:43:39;19.13;;;11.30;;
14992;SDS011;7592;51.088;13.732;2022-12-18T08:48:50;20.87;;;12.50;;
14992;SDS011;7592;51.088;13.732;2022-12-18T08:53:43;22.63;;;13.20;;
14992;SDS011;7592;51.088;13.732;2022-12-18T08:58:36;23.93;;;12.57;;
14992;SDS011;7592;51.088;13.732;2022-12-18T09:03:28;23.03;;;15.13;;
14992;SDS011;7592;51.088;13.732;2022-12-18T09:08:20;26.87;;;15.57;;
14992;SDS011;7592;51.088;13.732;2022-12-18T09:13:12;24.13;;;15.50;;
14992;SDS011;7592;51.088;13.732;2022-12-18T09:18:05;23.87;;;15.07;;
14992;SDS011;7592;51.088;13.732;2022-12-18T09:22:58;22.30;;;14.83;;
14992;SDS011;7592;51.088;13.732;2022-12-18T09:27:50;27.67;;;17.80;;
14992;SDS011;7592;51.088;13.732;2022-12-18T09:32:42;25.50;;;15.47;;
14992;SDS011;7592;51.088;13.732;2022-12-18T09:37:34;25.17;;;17.70;;
14992;SDS011;7592;51.088;13.732;2022-12-18T09:42:26;21.83;;;15.27;;
14992;SDS011;7592;51.088;13.732;2022-12-18T09:47:19;25.60;;;16.83;;
14992;SDS011;7592;51.088;13.732;2022-12-18T09:52:19;24.97;;;16.90;;
14992;SDS011;7592;51.088;13.732;2022-12-18T09:57:23;27.70;;;17.00;;
14992;SDS011;7592;51.088;13.732;2022-12-18T10:02:20;22.50;;;17.93;;
14992;SDS011;7592;51.088;13.732;2022-12-18T10:07:59;26.97;;;17.77;;
14992;SDS011;7592;51.088;13.732;2022-12-18T10:17:51;26.07;;;16.13;;
14992;SDS011;7592;51.088;13.732;2022-12-18T10:28:39;24.80;;;14.83;;
14992;SDS011;7592;51.088;13.732;2022-12-18T10:33:33;23.83;;;14.40;;
14992;SDS011;7592;51.088;13.732;2022-12-18T10:43:27;25.83;;;15.23;;
14992;SDS011;7592;51.088;13.732;2022-12-18T10:48:19;25.70;;;15.00;;
14992;SDS011;7592;51.088;13.732;2022-12-18T10:53:16;26.70;;;14.90;;
14992;SDS011;7592;51.088;13.732;2022-12-18T10:58:33;22.23;;;14.10;;
14992;SDS011;7592;51.088;13.732;2022-12-18T11:03:31;24.93;;;15.00;;
14992;SDS011;7592;51.088;13.732;2022-12-18T11:08:27;29.97;;;16.23;;
14992;SDS011;7592;51.088;13.732;2022-12-18T11:13:22;27.73;;;15.53;;
14992;SDS011;7592;51.088;13.732;2022-12-18T11:18:25;26.27;;;15.47;;
14992;SDS011;7592;51.088;13.732;2022-12-18T11:23:18;28.70;;;16.50;;
14992;SDS011;7592;51.088;13.732;2022-12-18T11:33:21;27.80;;;16.53;;
14992;SDS011;7592;51.088;13.732;2022-12-18T11:43:18;26.40;;;15.87;;
14992;SDS011;7592;51.088;13.732;2022-12-18T11:48:21;28.27;;;15.63;;
14992;SDS011;7592;51.088;13.732;2022-12-18T11:53:17;28.53;;;16.33;;
14992;SDS011;7592;51.088;13.732;2022-12-18T12:09:01;32.00;;;15.93;;
14992;SDS011;7592;51.088;13.732;2022-12-18T12:19:29;30.17;;;16.27;;
14992;SDS011;7592;51.088;13.732;2022-12-18T12:30:04;32.97;;;15.93;;
14992;SDS011;7592;51.088;13.732;2022-12-18T12:40:19;25.87;;;14.67;;
14992;SDS011;7592;51.088;13.732;2022-12-18T12:45:38;29.67;;;15.43;;
14992;SDS011;7592;51.088;13.732;2022-12-18T12:50:55;26.33;;;15.83;;
14992;SDS011;7592;51.088;13.732;2022-12-18T12:55:49;29.70;;;15.20;;
14992;SDS011;7592;51.088;13.732;2022-12-18T13:06:19;32.70;;;16.10;;
14992;SDS011;7592;51.088;13.732;2022-12-18T13:11:41;31.00;;;15.97;;
14992;SDS011;7592;51.088;13.732;2022-12-18T13:17:13;34.23;;;15.33;;
14992;SDS011;7592;51.088;13.732;2022-12-18T13:32:32;29.33;;;15.57;;
14992;SDS011;7592;51.088;13.732;2022-12-18T13:37:41;30.70;;;17.17;;
14992;SDS011;7592;51.088;13.732;2022-12-18T13:42:37;30.07;;;15.20;;
14992;SDS011;7592;51.088;13.732;2022-12-18T13:47:48;29.00;;;14.63;;
14992;SDS011;7592;51.088;13.732;2022-12-18T13:52:41;29.63;;;15.33;;
14992;SDS011;7592;51.088;13.732;2022-12-18T13:57:35;27.60;;;15.93;;
14992;SDS011;7592;51.088;13.732;2022-12-18T14:02:30;35.73;;;16.00;;
14992;SDS011;7592;51.088;13.732;2022-12-18T14:07:24;26.90;;;14.43;;
14992;SDS011;7592;51.088;13.732;2022-12-18T14:12:25;30.83;;;15.53;;
14992;SDS011;7592;51.088;13.732;2022-12-18T14:17:38;22.70;;;13.23;;
14992;SDS011;7592;51.088;13.732;2022-12-18T14:22:30;28.23;;;14.70;;
14992;SDS011;7592;51.088;13.732;2022-12-18T14:27:23;24.53;;;13.53;;
14992;SDS011;7592;51.088;13.732;2022-12-18T14:32:19;30.23;;;14.90;;
14992;SDS011;7592;51.088;13.732;2022-12-18T14:37:13;25.77;;;13.50;;
14992;SDS011;7592;51.088;13.732;2022-12-18T14:42:10;24.67;;;12.80;;
14992;SDS011;7592;51.088;13.732;2022-12-18T14:47:03;24.47;;;13.00;;
14992;SDS011;7592;51.088;13.732;2022-12-18T14:51:56;25.10;;;10.90;;
14992;SDS011;7592;51.088;13.732;2022-12-18T14:57:06;28.40;;;13.70;;
14992;SDS011;7592;51.088;13.732;2022-12-18T15:07:18;42.97;;;19.70;;
14992;SDS011;7592;51.088;13.732;2022-12-18T15:12:26;30.73;;;15.47;;
14992;SDS011;7592;51.088;13.732;2022-12-18T15:17:23;34.00;;;16.77;;
14992;SDS011;7592;51.088;13.732;2022-12-18T15:22:21;28.30;;;14.27;;
14992;SDS011;7592;51.088;13.732;2022-12-18T15:32:29;32.27;;;17.47;;
14992;SDS011;7592;51.088;13.732;2022-12-18T15:37:22;30.77;;;14.77;;
14992;SDS011;7592;51.088;13.732;2022-12-18T15:42:14;26.93;;;14.63;;
14992;SDS011;7592;51.088;13.732;2022-12-18T15:47:25;35.83;;;18.73;;
14992;SDS011;7592;51.088;13.732;2022-12-18T15:52:17;32.73;;;16.80;;
14992;SDS011;7592;51.088;13.732;2022-12-18T15:57:17;31.90;;;15.40;;
14992;SDS011;7592;51.088;13.732;2022-12-18T16:02:16;29.13;;;15.20;;
14992;SDS011;7592;51.088;13.732;2022-12-18T16:07:09;32.20;;;14.60;;
14992;SDS011;7592;51.088;13.732;2022-12-18T16:12:19;28.43;;;15.13;;
14992;SDS011;7592;51.088;13.732;2022-12-18T16:17:13;28.90;;;15.63;;
14992;SDS011;7592;51.088;13.732;2022-12-18T16:22:08;28.40;;;13.97;;
14992;SDS011;7592;51.088;13.732;2022-12-18T16:27:13;26.87;;;14.10;;
14992;SDS011;7592;51.088;13.732;2022-12-18T16:32:05;24.80;;;14.43;;
14992;SDS011;7592;51.088;13.732;2022-12-18T16:36:58;26.00;;;12.17;;
14992;SDS011;7592;51.088;13.732;2022-12-18T16:41:56;49.40;;;19.47;;
14992;SDS011;7592;51.088;13.732;2022-12-18T16:46:49;32.70;;;15.43;;
14992;SDS011;7592;51.088;13.732;2022-12-18T16:51:42;36.37;;;16.90;;
14992;SDS011;7592;51.088;13.732;2022-12-18T16:56:34;30.43;;;14.07;;
14992;SDS011;7592;51.088;13.732;2022-12-18T17:01:29;28.90;;;14.27;;
14992;SDS011;7592;51.088;13.732;2022-12-18T17:06:23;29.00;;;14.73;;
14992;SDS011;7592;51.088;13.732;2022-12-18T17:11:16;27.60;;;15.50;;
14992;SDS011;7592;51.088;13.732;2022-12-18T17:16:08;31.30;;;14.33;;
14992;SDS011;7592;51.088;13.732;2022-12-18T17:21:01;28.33;;;13.37;;
14992;SDS011;7592;51.088;13.732;2022-12-18T17:25:55;26.77;;;15.67;;
14992;SDS011;7592;51.088;13.732;2022-12-18T17:30:48;29.50;;;14.73;;
14992;SDS011;7592;51.088;13.732;2022-12-18T17:35:40;27.97;;;13.53;;
14992;SDS011;7592;51.088;13.732;2022-12-18T17:40:32;30.90;;;14.60;;
14992;SDS011;7592;51.088;13.732;2022-12-18T17:45:24;29.00;;;14.80;;
14992;SDS011;7592;51.088;13.732;2022-12-18T17:50:18;30.87;;;14.77;;
14992;SDS011;7592;51.088;13.732;2022-12-18T17:55:10;24.97;;;13.43;;
14992;SDS011;7592;51.088;13.732;2022-12-18T18:00:03;25.67;;;13.40;;
14992;SDS011;7592;51.088;13.732;2022-12-18T18:04:59;30.03;;;13.97;;
14992;SDS011;7592;51.088;13.732;2022-12-18T18:09:51;27.50;;;12.87;;
14992;SDS011;7592;51.088;13.732;2022-12-18T18:14:43;28.53;;;15.37;;
14992;SDS011;7592;51.088;13.732;2022-12-18T18:19:35;25.77;;;13.43;;
14992;SDS011;7592;51.088;13.732;2022-12-18T18:24:29;27.60;;;12.70;;
14992;SDS011;7592;51.088;13.732;2022-12-18T18:29:23;25.47;;;13.17;;
14992;SDS011;7592;51.088;13.732;2022-12-18T18:34:20;24.40;;;12.63;;
14992;SDS011;7592;51.088;13.732;2022-12-18T18:39:13;23.70;;;12.00;;
14992;SDS011;7592;51.088;13.732;2022-12-18T18:44:05;19.67;;;11.63;;
14992;SDS011;7592;51.088;13.732;2022-12-18T18:48:57;18.27;;;10.13;;
14992;SDS011;7592;51.088;13.732;2022-12-18T18:53:50;25.13;;;10.80;;
14992;SDS011;7592;51.088;13.732;2022-12-18T18:58:44;22.57;;;11.73;;
14992;SDS011;7592;51.088;13.732;2022-12-18T19:03:36;24.73;;;10.53;;
14992;SDS011;7592;51.088;13.732;2022-12-18T19:08:30;21.00;;;10.93;;
14992;SDS011;7592;51.088;13.732;2022-12-18T19:13:27;27.97;;;13.90;;
14992;SDS011;7592;51.088;13.732;2022-12-18T19:18:21;28.30;;;13.37;;
14992;SDS011;7592;51.088;13.732;2022-12-18T19:23:13;30.93;;;12.57;;
14992;SDS011;7592;51.088;13.732;2022-12-18T19:28:05;27.37;;;12.67;;
14992;SDS011;7592;51.088;13.732;2022-12-18T19:33:12;21.70;;;11.53;;
14992;SDS011;7592;51.088;13.732;2022-12-18T19:38:24;25.90;;;12.53;;
14992;SDS011;7592;51.088;13.732;2022-12-18T19:43:17;31.77;;;13.47;;
14992;SDS011;7592;51.088;13.732;2022-12-18T19:48:10;21.43;;;11.13;;
14992;SDS011;7592;51.088;13.732;2022-12-18T19:53:02;28.10;;;13.97;;
14992;SDS011;7592;51.088;13.732;2022-12-18T19:57:58;34.13;;;18.00;;
14992;SDS011;7592;51.088;13.732;2022-12-18T20:02:50;25.63;;;13.10;;
14992;SDS011;7592;51.088;13.732;2022-12-18T20:07:48;24.97;;;12.60;;
14992;SDS011;7592;51.088;13.732;2022-12-18T20:12:40;26.90;;;12.00;;
14992;SDS011;7592;51.088;13.732;2022-12-18T20:17:32;25.73;;;13.70;;
14992;SDS011;7592;51.088;13.732;2022-12-18T20:22:25;24.83;;;9.77;;
14992;SDS011;7592;51.088;13.732;2022-12-18T20:27:17;21.07;;;11.93;;
14992;SDS011;7592;51.088;13.732;2022-12-18T20:32:10;32.97;;;16.97;;
14992;SDS011;7592;51.088;13.732;2022-12-18T20:37:02;25.00;;;12.23;;
14992;SDS011;7592;51.088;13.732;2022-12-18T20:41:54;21.20;;;10.67;;
14992;SDS011;7592;51.088;13.732;2022-12-18T20:46:46;22.10;;;12.43;;
14992;SDS011;7592;51.088;13.732;2022-12-18T20:51:39;26.37;;;14.20;;
14992;SDS011;7592;51.088;13.732;2022-12-18T20:56:31;23.87;;;12.37;;
14992;SDS011;7592;51.088;13.732;2022-12-18T21:01:24;19.27;;;10.03;;
14992;SDS011;7592;51.088;13.732;2022-12-18T21:06:17;20.10;;;10.93;;
14992;SDS011;7592;51.088;13.732;2022-12-18T21:11:13;21.43;;;10.03;;
14992;SDS011;7592;51.088;13.732;2022-12-18T21:16:44;19.23;;;10.73;;
14992;SDS011;7592;51.088;13.732;2022-12-18T21:21:36;20.97;;;10.73;;
14992;SDS011;7592;51.088;13.732;2022-12-18T21:26:29;17.53;;;9.83;;
14992;SDS011;7592;51.088;13.732;2022-12-18T21:31:22;19.33;;;9.97;;
14992;SDS011;7592;51.088;13.732;2022-12-18T21:36:16;22.57;;;11.50;;
14992;SDS011;7592;51.088;13.732;2022-12-18T21:41:08;22.67;;;11.67;;
14992;SDS011;7592;51.088;13.732;2022-12-18T21:46:20;20.07;;;10.60;;
14992;SDS011;7592;51.088;13.732;2022-12-18T21:51:12;23.77;;;12.77;;
14992;SDS011;7592;51.088;13.732;2022-12-18T21:56:04;26.50;;;14.10;;
14992;SDS011;7592;51.088;13.732;2022-12-18T22:00:56;25.57;;;13.70;;
14992;SDS011;7592;51.088;13.732;2022-12-18T22:05:48;31.20;;;14.10;;
14992;SDS011;7592;51.088;13.732;2022-12-18T22:10:59;25.80;;;13.37;;
14992;SDS011;7592;51.088;13.732;2022-12-18T22:15:51;28.73;;;14.47;;
14992;SDS011;7592;51.088;13.732;2022-12-18T22:20:43;26.73;;;13.20;;
14992;SDS011;7592;51.088;13.732;2022-12-18T22:25:37;30.33;;;15.27;;
14992;SDS011;7592;51.088;13.732;2022-12-18T22:30:31;36.30;;;17.17;;
14992;SDS011;7592;51.088;13.732;2022-12-18T22:35:25;44.60;;;19.90;;
14992;SDS011;7592;51.088;13.732;2022-12-18T22:40:21;38.60;;;18.07;;
14992;SDS011;7592;51.088;13.732;2022-12-18T22:45:17;37.90;;;18.60;;
14992;SDS011;7592;51.088;13.732;2022-12-18T22:50:13;37.93;;;18.47;;
14992;SDS011;7592;51.088;13.732;2022-12-18T22:55:06;58.27;;;25.73;;
14992;SDS011;7592;51.088;13.732;2022-12-18T22:59:59;39.77;;;20.37;;
14992;SDS011;7592;51.088;13.732;2022-12-18T23:04:51;30.20;;;17.03;;
14992;SDS011;7592;51.088;13.732;2022-12-18T23:09:43;36.03;;;19.57;;
14992;SDS011;7592;51.088;13.732;2022-12-18T23:14:38;30.47;;;17.47;;
14992;SDS011;7592;51.088;13.732;2022-12-18T23:19:30;29.10;;;15.43;;
14992;SDS011;7592;51.088;13.732;2022-12-18T23:24:22;27.40;;;15.57;;
14992;SDS011;7592;51.088;13.732;2022-12-18T23:29:14;28.70;;;17.10;;
14992;SDS011;7592;51.088;13.732;2022-12-18T23:34:08;25.17;;;14.57;;
14992;SDS011;7592;51.088;13.732;2022-12-18T23:39:03;29.93;;;16.37;;
14992;SDS011;7592;51.088;13.732;2022-12-18T23:43:56;35.50;;;17.77;;
14992;SDS011;7592;51.088;13.732;2022-12-18T23:48:48;31.23;;;16.73;;
14992;SDS011;7592;51.088;13.732;2022-12-18T23:53:41;30.10;;;15.77;;
14992;SDS011;7592;51.088;13.732;2022-12-18T23:58:34;42.60;;;19.53;;
